createdAt,value
2023-05-05T00:01:47.733Z,100.00
2023-05-05T00:04:14.309Z,100.00
2023-05-05T00:06:40.914Z,100.00
2023-05-05T00:09:07.439Z,100.00
2023-05-05T00:11:33.967Z,100.00
2023-05-05T00:14:02.759Z,100.00
2023-05-05T00:16:31.631Z,100.00
2023-05-05T00:19:00.545Z,100.00
2023-05-05T00:21:29.440Z,100.00
2023-05-05T00:23:58.391Z,100.00
2023-05-05T00:26:24.952Z,100.00
2023-05-05T00:28:53.990Z,100.00
2023-05-05T00:31:21.009Z,100.00
2023-05-05T00:33:50.081Z,100.00
2023-05-05T00:36:16.646Z,100.00
2023-05-05T00:38:47.945Z,100.00
2023-05-05T00:41:16.870Z,100.00
2023-05-05T00:43:45.742Z,100.00
2023-05-05T00:46:30.630Z,100.00
2023-05-05T00:48:58.205Z,100.00
2023-05-05T00:51:27.978Z,100.00
2023-05-05T00:53:57.177Z,100.00
2023-05-05T00:56:27.426Z,100.00
2023-05-05T00:58:54.287Z,100.00
2023-05-05T01:01:20.908Z,100.00
2023-05-05T01:03:49.884Z,100.00
2023-05-05T01:06:19.179Z,100.00
2023-05-05T01:09:02.115Z,100.00
2023-05-05T01:11:48.768Z,100.00
2023-05-05T01:14:34.198Z,100.00
2023-05-05T01:17:12.648Z,100.00
2023-05-05T01:20:08.090Z,100.00
2023-05-05T01:22:41.533Z,100.00
2023-05-05T01:25:27.175Z,100.00
2023-05-05T01:28:28.417Z,100.00
2023-05-05T01:31:19.743Z,100.00
2023-05-05T01:33:55.112Z,100.00
2023-05-05T01:36:28.642Z,100.00
2023-05-05T01:39:01.985Z,100.00
2023-05-05T01:41:47.311Z,100.00
2023-05-05T01:44:19.976Z,100.00
2023-05-05T01:46:51.883Z,100.00
2023-05-05T01:49:21.064Z,100.00
2023-05-05T01:51:52.397Z,100.00
2023-05-05T01:54:20.315Z,100.00
2023-05-05T01:56:49.263Z,100.00
2023-05-05T01:59:21.071Z,100.00
2023-05-05T02:01:49.476Z,100.00
2023-05-05T02:04:18.599Z,100.00
2023-05-05T02:06:50.456Z,100.00
2023-05-05T02:09:19.724Z,100.00
2023-05-05T02:11:49.354Z,100.00
2023-05-05T02:14:19.264Z,100.00
2023-05-05T02:16:46.850Z,100.00
2023-05-05T02:19:16.833Z,100.00
2023-05-05T02:21:46.321Z,100.00
2023-05-05T02:24:12.967Z,100.00
2023-05-05T02:26:44.188Z,100.00
2023-05-05T02:29:15.365Z,100.00
2023-05-05T02:31:57.833Z,100.00
2023-05-05T02:34:27.489Z,100.00
2023-05-05T02:36:58.432Z,100.00
2023-05-05T02:39:39.368Z,100.00
2023-05-05T02:42:13.218Z,100.00
2023-05-05T02:44:44.510Z,100.00
2023-05-05T02:47:13.716Z,100.00
2023-05-05T02:49:43.760Z,100.00
2023-05-05T02:52:12.958Z,100.00
2023-05-05T02:54:42.214Z,100.00
2023-05-05T02:57:14.808Z,100.00
2023-05-05T02:59:49.499Z,100.00
2023-05-05T03:02:23.220Z,100.00
2023-05-05T03:04:56.724Z,100.00
2023-05-05T03:07:30.963Z,100.00
2023-05-05T03:10:09.691Z,100.00
2023-05-05T03:15:49.417Z,100.00
2023-05-05T03:18:25.167Z,100.00
2023-05-05T03:20:57.454Z,100.00
2023-05-05T03:23:28.896Z,100.00
2023-05-05T03:25:55.504Z,100.00
2023-05-05T03:28:22.134Z,100.00
2023-05-05T03:30:48.750Z,100.00
2023-05-05T03:33:15.985Z,100.00
2023-05-05T03:35:42.533Z,100.00
2023-05-05T03:38:11.665Z,100.00
2023-05-05T03:40:44.486Z,100.00
2023-05-05T03:43:13.787Z,100.00
2023-05-05T03:45:40.363Z,100.00
2023-05-05T03:48:10.139Z,100.00
2023-05-05T03:50:39.010Z,100.00
2023-05-05T03:53:05.570Z,100.00
2023-05-05T03:55:32.185Z,100.00
2023-05-05T03:57:58.742Z,100.00
2023-05-05T04:00:27.636Z,100.00
2023-05-05T04:02:56.595Z,100.00
2023-05-05T04:05:26.056Z,100.00
2023-05-05T04:07:52.613Z,100.00
2023-05-05T04:10:19.181Z,100.00
2023-05-05T04:12:46.314Z,100.00
2023-05-05T04:15:13.008Z,100.00
2023-05-05T04:17:39.800Z,100.00
2023-05-05T04:20:10.612Z,100.00
2023-05-05T04:22:42.068Z,100.00
2023-05-05T04:25:11.381Z,100.00
2023-05-05T04:27:38.072Z,100.00
2023-05-05T04:30:08.424Z,100.00
2023-05-05T04:32:37.553Z,100.00
2023-05-05T04:35:06.996Z,100.00
2023-05-05T04:37:33.557Z,100.00
2023-05-05T04:40:02.167Z,100.00
2023-05-05T04:42:31.329Z,100.00
2023-05-05T04:44:58.030Z,100.00
2023-05-05T04:47:24.844Z,100.00
2023-05-05T04:49:51.425Z,100.00
2023-05-05T04:52:20.240Z,100.00
2023-05-05T04:54:46.920Z,100.00
2023-05-05T04:57:18.211Z,100.00
2023-05-05T04:59:49.597Z,100.00
2023-05-05T05:02:18.624Z,100.00
2023-05-05T05:04:45.211Z,100.00
2023-05-05T05:07:11.781Z,100.00
2023-05-05T05:09:40.914Z,100.00
2023-05-05T05:12:09.861Z,100.00
2023-05-05T05:14:42.472Z,100.00
2023-05-05T05:17:09.094Z,100.00
2023-05-05T05:19:35.833Z,100.00
2023-05-05T05:22:02.387Z,100.00
2023-05-05T05:24:46.480Z,100.00
2023-05-05T05:27:13.018Z,100.00
2023-05-05T05:29:42.144Z,100.00
2023-05-05T05:32:09.063Z,100.00
2023-05-05T05:34:38.256Z,100.00
2023-05-05T05:37:09.564Z,100.00
2023-05-05T05:39:38.379Z,100.00
2023-05-05T05:42:04.990Z,100.00
2023-05-05T05:44:34.585Z,100.00
2023-05-05T05:47:03.387Z,100.00
2023-05-05T05:49:34.962Z,100.00
2023-05-05T05:52:03.767Z,100.00
2023-05-05T05:54:30.383Z,100.00
2023-05-05T05:56:57.077Z,100.00
2023-05-05T05:59:26.017Z,100.00
2023-05-05T06:01:52.588Z,100.00
2023-05-05T06:04:19.192Z,100.00
2023-05-05T06:06:50.842Z,100.00
2023-05-05T06:09:19.500Z,100.00
2023-05-05T06:11:48.272Z,100.00
2023-05-05T06:14:19.496Z,98.53
2023-05-05T06:16:46.606Z,94.31
2023-05-05T06:19:13.157Z,90.94
2023-05-05T06:21:44.189Z,90.07
2023-05-05T06:24:10.782Z,88.85
2023-05-05T06:26:37.412Z,89.09
2023-05-05T06:29:06.865Z,89.30
2023-05-05T06:31:33.565Z,93.16
2023-05-05T06:34:00.230Z,95.72
2023-05-05T06:36:26.819Z,97.20
2023-05-05T06:38:54.212Z,95.02
2023-05-05T06:41:28.040Z,93.67
2023-05-05T06:43:54.635Z,92.46
2023-05-05T06:46:21.325Z,88.30
2023-05-05T06:48:47.976Z,87.63
2023-05-05T06:51:17.066Z,89.64
2023-05-05T06:53:43.631Z,88.56
2023-05-05T06:56:11.419Z,87.19
2023-05-05T06:58:38.001Z,89.51
2023-05-05T07:01:07.256Z,88.34
2023-05-05T07:03:41.212Z,83.42
2023-05-05T07:06:10.448Z,84.08
2023-05-05T07:08:37.013Z,82.26
2023-05-05T07:11:06.502Z,81.65
2023-05-05T07:13:35.311Z,83.23
2023-05-05T07:16:05.171Z,82.82
2023-05-05T07:18:36.293Z,86.60
2023-05-05T07:21:05.877Z,84.23
2023-05-05T07:23:40.647Z,80.41
2023-05-05T07:26:11.803Z,78.21
2023-05-05T07:28:38.387Z,80.42
2023-05-05T07:31:07.265Z,82.50
2023-05-05T07:33:36.162Z,83.91
2023-05-05T07:36:05.562Z,84.55
2023-05-05T07:38:32.110Z,82.89
2023-05-05T07:40:58.858Z,81.05
2023-05-05T07:43:25.706Z,82.26
2023-05-05T07:45:56.911Z,78.92
2023-05-05T07:48:26.053Z,79.41
2023-05-05T07:50:53.017Z,74.54
2023-05-05T07:53:24.304Z,72.57
2023-05-05T07:55:53.444Z,71.17
2023-05-05T07:58:22.679Z,68.53
2023-05-05T08:00:50.323Z,71.95
2023-05-05T08:03:19.924Z,75.75
2023-05-05T08:05:53.166Z,69.69
2023-05-05T08:08:19.840Z,72.96
2023-05-05T08:10:50.668Z,74.37
2023-05-05T08:13:17.292Z,71.00
2023-05-05T08:15:45.545Z,70.52
2023-05-05T08:18:12.221Z,69.20
2023-05-05T08:20:39.196Z,69.23
2023-05-05T08:23:06.391Z,70.94
2023-05-05T08:25:35.629Z,67.53
2023-05-05T08:28:02.531Z,66.23
2023-05-05T08:30:29.454Z,71.26
2023-05-05T08:32:56.522Z,71.29
2023-05-05T08:35:23.289Z,71.98
2023-05-05T08:37:51.676Z,71.24
2023-05-05T08:40:28.836Z,70.33
2023-05-05T08:42:58.416Z,70.95
2023-05-05T08:45:26.176Z,69.87
2023-05-05T08:47:58.049Z,72.23
2023-05-05T08:50:31.278Z,67.00
2023-05-05T08:53:18.103Z,69.51
2023-05-05T08:55:54.609Z,69.33
2023-05-05T08:58:23.410Z,69.45
2023-05-05T09:00:50.807Z,67.74
2023-05-05T09:03:18.286Z,67.46
2023-05-05T09:05:45.147Z,64.38
2023-05-05T09:08:12.038Z,66.47
2023-05-05T09:10:44.694Z,62.46
2023-05-05T09:13:20.187Z,62.52
2023-05-05T09:15:51.256Z,63.27
2023-05-05T09:18:20.200Z,63.15
2023-05-05T09:20:46.789Z,63.53
2023-05-05T09:23:18.433Z,63.30
2023-05-05T09:26:02.437Z,59.13
2023-05-05T09:28:29.400Z,61.23
2023-05-05T09:30:56.159Z,61.75
2023-05-05T09:33:31.920Z,62.27
2023-05-05T09:35:58.922Z,59.76
2023-05-05T09:38:25.917Z,60.83
2023-05-05T09:40:54.073Z,61.17
2023-05-05T09:43:23.988Z,57.10
2023-05-05T09:45:51.439Z,60.38
2023-05-05T09:48:29.160Z,60.77
2023-05-05T09:50:59.046Z,60.75
2023-05-05T09:53:42.472Z,65.00
2023-05-05T09:56:12.231Z,61.14
2023-05-05T09:58:38.855Z,59.69
2023-05-05T10:01:08.632Z,62.58
2023-05-05T10:03:52.658Z,61.52
2023-05-05T10:06:39.447Z,60.15
2023-05-05T10:09:06.186Z,58.79
2023-05-05T10:11:36.147Z,57.43
2023-05-05T10:14:09.071Z,58.13
2023-05-05T10:16:36.997Z,59.89
2023-05-05T10:19:06.765Z,59.08
2023-05-05T10:21:40.202Z,59.63
2023-05-05T10:24:21.916Z,57.44
2023-05-05T10:26:53.108Z,58.91
2023-05-05T10:29:46.061Z,60.49
2023-05-05T10:32:51.520Z,57.13
2023-05-05T10:35:27.974Z,59.91
2023-05-05T10:37:55.184Z,57.48
2023-05-05T10:40:22.568Z,57.31
2023-05-05T10:42:54.058Z,57.13
2023-05-05T10:45:20.900Z,58.31
2023-05-05T10:47:51.132Z,57.35
2023-05-05T10:50:29.534Z,58.85
2023-05-05T10:53:16.786Z,55.27
2023-05-05T10:56:12.795Z,57.31
2023-05-05T10:58:58.448Z,55.97
2023-05-05T11:01:34.137Z,54.32
2023-05-05T11:04:22.504Z,55.80
2023-05-05T11:07:14.731Z,54.83
2023-05-05T11:10:02.033Z,53.62
2023-05-05T11:12:33.192Z,54.84
2023-05-05T11:15:28.047Z,55.17
2023-05-05T11:17:59.300Z,54.08
2023-05-05T11:20:35.162Z,53.38
2023-05-05T11:23:05.214Z,54.41
2023-05-05T11:25:37.595Z,55.91
2023-05-05T11:28:06.234Z,56.12
2023-05-05T11:30:32.893Z,54.01
2023-05-05T11:33:33.043Z,53.12
2023-05-05T11:36:07.185Z,50.83
2023-05-05T11:39:11.585Z,54.71
2023-05-05T11:41:43.883Z,51.09
2023-05-05T11:44:11.417Z,50.51
2023-05-05T11:46:51.749Z,47.03
2023-05-05T11:49:31.318Z,49.92
2023-05-05T11:52:01.973Z,48.70
2023-05-05T11:54:32.388Z,48.90
2023-05-05T11:57:07.735Z,51.15
2023-05-05T11:59:55.309Z,50.77
2023-05-05T12:02:23.032Z,50.03
2023-05-05T12:04:50.928Z,46.98
2023-05-05T12:07:22.748Z,48.25
2023-05-05T12:09:52.564Z,49.17
2023-05-05T12:12:19.563Z,47.49
2023-05-05T12:14:55.497Z,47.79
2023-05-05T12:17:23.476Z,47.49
2023-05-05T12:19:57.124Z,48.22
2023-05-05T12:22:24.929Z,47.42
2023-05-05T12:25:06.481Z,47.27
2023-05-05T12:27:33.138Z,46.64
2023-05-05T12:30:17.343Z,44.34
2023-05-05T12:32:47.033Z,46.58
2023-05-05T12:35:17.111Z,44.32
2023-05-05T12:37:43.784Z,45.58
2023-05-05T12:40:44.872Z,45.50
2023-05-05T12:43:24.339Z,46.76
2023-05-05T12:46:13.664Z,44.73
2023-05-05T12:48:46.382Z,45.17
2023-05-05T12:51:23.343Z,47.01
2023-05-05T12:54:02.112Z,44.93
2023-05-05T12:56:42.116Z,45.44
2023-05-05T12:59:10.878Z,45.19
2023-05-05T13:01:54.614Z,45.41
2023-05-05T13:04:23.209Z,43.57
2023-05-05T13:07:10.006Z,43.13
2023-05-05T13:09:38.975Z,46.03
2023-05-05T13:12:07.123Z,45.37
2023-05-05T13:14:34.830Z,48.29
2023-05-05T13:17:01.497Z,46.76
2023-05-05T13:19:31.385Z,45.87
2023-05-05T13:21:58.819Z,46.09
2023-05-05T13:24:42.204Z,45.56
2023-05-05T13:27:16.654Z,45.41
2023-05-05T13:29:45.436Z,45.62
2023-05-05T13:32:12.010Z,43.33
2023-05-05T13:34:39.370Z,45.45
2023-05-05T13:37:06.444Z,45.90
2023-05-05T13:39:35.546Z,45.35
2023-05-05T13:42:02.059Z,45.16
2023-05-05T13:44:28.623Z,48.68
2023-05-05T13:46:55.219Z,50.07
2023-05-05T13:49:24.363Z,49.28
2023-05-05T13:51:51.021Z,50.00
2023-05-05T13:54:20.046Z,49.38
2023-05-05T13:56:46.639Z,49.90
2023-05-05T13:59:13.294Z,50.29
2023-05-05T14:01:39.911Z,50.65
2023-05-05T14:04:06.704Z,52.29
2023-05-05T14:06:36.193Z,54.18
2023-05-05T14:09:05.859Z,53.39
2023-05-05T14:11:35.045Z,54.84
2023-05-05T14:14:04.140Z,56.34
2023-05-05T14:16:30.950Z,58.05
2023-05-05T14:18:57.632Z,56.73
2023-05-05T14:21:26.740Z,58.87
2023-05-05T14:23:53.345Z,60.61
2023-05-05T14:26:22.235Z,58.62
2023-05-05T14:28:51.205Z,60.68
2023-05-05T14:31:20.886Z,60.36
2023-05-05T14:33:47.489Z,58.93
2023-05-05T14:36:14.392Z,58.75
2023-05-05T14:38:42.877Z,59.44
2023-05-05T14:41:11.938Z,63.17
2023-05-05T14:43:41.001Z,64.62
2023-05-05T14:46:09.708Z,64.29
2023-05-05T14:48:36.430Z,63.29
2023-05-05T14:51:03.646Z,63.82
2023-05-05T14:53:30.624Z,64.92
2023-05-05T14:55:57.684Z,64.36
2023-05-05T14:58:24.850Z,63.49
2023-05-05T15:00:54.744Z,66.59
2023-05-05T15:03:26.139Z,70.01
2023-05-05T15:05:52.800Z,71.27
2023-05-05T15:08:24.031Z,76.53
2023-05-05T15:10:53.309Z,78.92
2023-05-05T15:13:19.904Z,80.00
2023-05-05T15:15:46.613Z,80.15
2023-05-05T15:18:13.704Z,83.60
2023-05-05T15:20:42.514Z,86.51
2023-05-05T15:23:09.443Z,86.92
2023-05-05T15:25:40.825Z,87.43
2023-05-05T15:28:07.439Z,92.58
2023-05-05T15:30:34.022Z,89.74
2023-05-05T15:33:00.697Z,91.97
2023-05-05T15:35:27.376Z,97.06
2023-05-05T15:37:56.228Z,94.19
2023-05-05T15:40:22.991Z,93.91
2023-05-05T15:42:51.690Z,90.60
2023-05-05T15:45:18.356Z,84.91
2023-05-05T15:47:50.503Z,83.00
2023-05-05T15:50:17.303Z,79.70
2023-05-05T15:52:43.938Z,77.22
2023-05-05T15:55:13.021Z,76.88
2023-05-05T15:57:41.879Z,78.76
2023-05-05T16:00:09.419Z,78.92
2023-05-05T16:02:38.218Z,79.82
2023-05-05T16:05:05.590Z,81.39
2023-05-05T16:07:32.279Z,80.71
2023-05-05T16:10:03.651Z,82.12
2023-05-05T16:12:32.763Z,83.93
2023-05-05T16:15:03.940Z,85.52
2023-05-05T16:17:31.218Z,82.43
2023-05-05T16:19:57.799Z,85.74
2023-05-05T16:22:24.390Z,89.30
2023-05-05T16:24:53.137Z,87.45
2023-05-05T16:27:19.746Z,86.71
2023-05-05T16:29:48.480Z,86.05
2023-05-05T16:32:15.320Z,83.33
2023-05-05T16:34:44.492Z,86.30
2023-05-05T16:37:11.127Z,88.76
2023-05-05T16:39:40.425Z,86.91
2023-05-05T16:42:13.407Z,88.95
2023-05-05T16:44:40.535Z,86.60
2023-05-05T16:47:10.108Z,87.06
2023-05-05T16:49:38.886Z,82.18
2023-05-05T16:52:05.586Z,83.10
2023-05-05T16:54:32.401Z,85.94
2023-05-05T16:56:58.953Z,82.23
2023-05-05T16:59:25.487Z,83.17
2023-05-05T17:01:54.406Z,80.90
2023-05-05T17:04:23.994Z,83.07
2023-05-05T17:06:50.903Z,82.19
2023-05-05T17:09:24.749Z,82.29
2023-05-05T17:11:54.194Z,80.76
2023-05-05T17:14:27.435Z,82.71
2023-05-05T17:16:56.292Z,83.39
2023-05-05T17:19:22.863Z,82.80
2023-05-05T17:21:51.827Z,83.68
2023-05-05T17:24:18.436Z,87.06
2023-05-05T17:26:45.025Z,85.66
2023-05-05T17:29:19.806Z,85.58
2023-05-05T17:31:50.265Z,86.28
2023-05-05T17:34:19.242Z,85.04
2023-05-05T17:36:45.919Z,86.46
2023-05-05T17:39:12.846Z,87.15
2023-05-05T17:41:39.469Z,87.50
2023-05-05T17:44:06.055Z,86.20
2023-05-05T17:46:33.086Z,86.94
2023-05-05T17:49:00.618Z,86.39
2023-05-05T17:51:27.473Z,87.26
2023-05-05T17:53:54.041Z,89.02
2023-05-05T17:56:22.718Z,88.65
2023-05-05T17:58:49.375Z,89.87
2023-05-05T18:01:30.070Z,87.70
2023-05-05T18:03:57.362Z,88.00
2023-05-05T18:06:23.937Z,95.38
2023-05-05T18:08:52.910Z,91.77
2023-05-05T18:11:21.306Z,94.50
2023-05-05T18:13:47.958Z,91.56
2023-05-05T18:16:14.603Z,88.80
2023-05-05T18:18:43.792Z,91.47
2023-05-05T18:21:12.631Z,92.24
2023-05-05T18:23:40.159Z,94.78
2023-05-05T18:26:07.121Z,94.13
2023-05-05T18:28:35.942Z,94.52
2023-05-05T18:31:02.522Z,94.12
2023-05-05T18:33:29.108Z,97.29
2023-05-05T18:35:56.486Z,97.79
2023-05-05T18:38:25.592Z,99.70
2023-05-05T18:40:54.791Z,98.39
2023-05-05T18:43:21.319Z,100.00
2023-05-05T18:45:52.811Z,100.00
2023-05-05T18:48:21.865Z,99.98
2023-05-05T18:50:49.929Z,100.00
2023-05-05T18:53:21.371Z,100.00
2023-05-05T18:55:50.999Z,100.00
2023-05-05T18:58:17.642Z,100.00
2023-05-05T19:00:44.341Z,100.00
2023-05-05T19:03:15.501Z,100.00
2023-05-05T19:05:44.704Z,100.00
2023-05-05T19:08:11.246Z,100.00
2023-05-05T19:10:37.862Z,100.00
2023-05-05T19:13:09.304Z,100.00
2023-05-05T19:15:35.933Z,100.00
2023-05-05T19:18:07.464Z,100.00
2023-05-05T19:20:34.245Z,100.00
2023-05-05T19:23:04.025Z,100.00
2023-05-05T19:25:36.432Z,100.00
2023-05-05T19:28:03.059Z,100.00
2023-05-05T19:30:30.371Z,100.00
2023-05-05T19:33:01.767Z,100.00
2023-05-05T19:35:29.581Z,100.00
2023-05-05T19:37:56.245Z,100.00
2023-05-05T19:40:23.099Z,100.00
2023-05-05T19:42:49.957Z,100.00
2023-05-05T19:45:19.149Z,100.00
2023-05-05T19:47:46.240Z,100.00
2023-05-05T19:50:15.361Z,100.00
2023-05-05T19:52:44.476Z,100.00
2023-05-05T19:55:15.798Z,100.00
2023-05-05T19:57:42.396Z,100.00
2023-05-05T20:00:12.084Z,100.00
2023-05-05T20:02:38.943Z,100.00
2023-05-05T20:05:06.124Z,100.00
2023-05-05T20:07:37.577Z,100.00
2023-05-05T20:10:07.116Z,100.00
2023-05-05T20:12:34.255Z,100.00
2023-05-05T20:15:03.239Z,100.00
2023-05-05T20:17:32.068Z,100.00
2023-05-05T20:20:00.930Z,100.00
2023-05-05T20:22:27.552Z,100.00
2023-05-05T20:24:54.155Z,100.00
2023-05-05T20:27:21.531Z,100.00
2023-05-05T20:29:50.540Z,100.00
2023-05-05T20:32:20.465Z,100.00
2023-05-05T20:34:48.178Z,100.00
2023-05-05T20:37:14.885Z,100.00
2023-05-05T20:39:43.833Z,100.00
2023-05-05T20:42:10.943Z,100.00
2023-05-05T20:44:42.171Z,100.00
2023-05-05T20:47:08.828Z,100.00
2023-05-05T20:49:37.979Z,100.00
2023-05-05T20:52:07.328Z,100.00
2023-05-05T20:54:36.369Z,100.00
2023-05-05T20:57:03.141Z,100.00
2023-05-05T20:59:30.130Z,100.00
2023-05-05T21:01:58.064Z,100.00
2023-05-05T21:04:24.941Z,100.00
2023-05-05T21:06:51.607Z,100.00
2023-05-05T21:09:21.571Z,100.00
2023-05-05T21:11:50.568Z,100.00
2023-05-05T21:14:17.687Z,100.00
2023-05-05T21:16:46.855Z,100.00
2023-05-05T21:19:16.450Z,100.00
2023-05-05T21:21:45.600Z,100.00
2023-05-05T21:24:13.231Z,100.00
2023-05-05T21:26:48.354Z,100.00
2023-05-05T21:29:14.987Z,100.00
2023-05-05T21:31:44.485Z,100.00
2023-05-05T21:34:13.940Z,100.00
2023-05-05T21:36:45.343Z,100.00
2023-05-05T21:39:12.235Z,100.00
2023-05-05T21:41:41.495Z,100.00
2023-05-05T21:44:08.037Z,100.00
2023-05-05T21:46:34.661Z,100.00
2023-05-05T21:49:12.780Z,100.00
2023-05-05T21:51:44.721Z,100.00
2023-05-05T21:54:11.351Z,100.00
2023-05-05T21:56:38.600Z,100.00
2023-05-05T21:59:07.672Z,100.00
2023-05-05T22:01:37.196Z,100.00
2023-05-05T22:04:04.043Z,100.00
2023-05-05T22:06:30.877Z,100.00
2023-05-05T22:08:57.413Z,100.00
2023-05-05T22:11:24.156Z,100.00
2023-05-05T22:13:50.819Z,100.00
2023-05-05T22:16:18.373Z,100.00
2023-05-05T22:18:48.717Z,100.00
2023-05-05T22:21:20.012Z,100.00
2023-05-05T22:23:48.992Z,100.00
2023-05-05T22:26:15.675Z,100.00
2023-05-05T22:28:42.314Z,100.00
2023-05-05T22:31:08.925Z,100.00
2023-05-05T22:33:36.228Z,100.00
2023-05-05T22:36:05.092Z,100.00
2023-05-05T22:38:31.665Z,100.00
2023-05-05T22:40:58.238Z,100.00
2023-05-05T22:43:24.905Z,100.00
2023-05-05T22:45:53.700Z,100.00
2023-05-05T22:48:22.917Z,100.00
2023-05-05T22:50:51.708Z,100.00
2023-05-05T22:53:20.733Z,100.00
2023-05-05T22:55:52.161Z,100.00
2023-05-05T22:58:21.170Z,100.00
2023-05-05T23:00:47.835Z,100.00
2023-05-05T23:03:17.517Z,100.00
2023-05-05T23:05:46.559Z,100.00
2023-05-05T23:08:13.139Z,100.00
2023-05-05T23:10:41.728Z,100.00
2023-05-05T23:13:10.757Z,100.00
2023-05-05T23:15:42.326Z,100.00
2023-05-05T23:18:13.664Z,100.00
2023-05-05T23:20:45.134Z,100.00
2023-05-05T23:23:11.687Z,100.00
2023-05-05T23:25:40.853Z,100.00
2023-05-05T23:28:07.452Z,100.00
2023-05-05T23:30:36.451Z,100.00
2023-05-05T23:33:04.034Z,100.00
2023-05-05T23:35:34.216Z,100.00
2023-05-05T23:38:03.121Z,100.00
2023-05-05T23:40:29.632Z,100.00
2023-05-05T23:42:56.213Z,100.00
2023-05-05T23:45:22.806Z,100.00
2023-05-05T23:47:52.452Z,100.00
2023-05-05T23:50:19.043Z,100.00
2023-05-05T23:52:45.767Z,100.00
2023-05-05T23:55:16.787Z,100.00
2023-05-05T23:57:43.462Z,100.00
